createdAt,value
2022-08-20T09:25:36.925Z,43.85
2022-08-20T09:30:39.126Z,45.13
2022-08-20T10:21:15.852Z,41.08
2022-08-20T10:26:17.664Z,41.86
2022-08-20T10:31:19.470Z,42.57
2022-08-20T10:36:21.597Z,42.89
2022-08-20T10:41:23.365Z,42.09
2022-08-20T10:46:25.349Z,40.67
2022-08-20T10:51:32.630Z,40.30
2022-08-20T10:56:34.696Z,41.42
2022-08-20T11:01:36.926Z,41.74
2022-08-20T11:06:38.843Z,42.04
2022-08-20T11:11:40.595Z,40.95
2022-08-20T11:16:42.410Z,40.16
2022-08-20T11:21:44.155Z,39.93
2022-08-20T11:26:50.370Z,38.83
2022-08-20T11:31:52.146Z,39.75
2022-08-20T11:36:53.818Z,39.42
2022-08-20T11:41:55.781Z,39.33
2022-08-20T11:47:03.498Z,38.65
2022-08-20T11:52:05.856Z,37.95
2022-08-20T11:57:07.561Z,37.64
2022-08-20T12:02:12.524Z,38.44
2022-08-20T12:07:17.748Z,38.03
2022-08-20T12:12:22.458Z,37.41
2022-08-20T12:17:26.795Z,37.59
2022-08-20T12:22:28.484Z,38.40
2022-08-20T12:27:32.466Z,38.00
2022-08-20T12:32:34.394Z,38.02
2022-08-20T12:37:36.740Z,38.22
2022-08-20T12:42:38.544Z,38.37
2022-08-20T12:47:44.944Z,39.11
2022-08-20T12:52:48.271Z,39.89
2022-08-20T12:57:53.872Z,39.84
2022-08-20T13:02:57.864Z,40.06
2022-08-20T13:08:00.063Z,41.60
2022-08-20T13:13:02.959Z,45.70
2022-08-20T13:18:06.435Z,47.72
2022-08-20T13:23:08.119Z,45.87
2022-08-20T13:28:10.383Z,47.57
2022-08-20T13:33:12.002Z,47.30
2022-08-20T13:38:13.647Z,45.90
2022-08-20T13:43:15.616Z,44.90
2022-08-20T13:48:17.261Z,43.98
2022-08-20T13:53:18.965Z,44.51
2022-08-20T13:58:22.860Z,45.96
2022-08-20T14:03:25.522Z,44.01
2022-08-20T14:08:29.198Z,44.75
2022-08-20T14:13:31.115Z,44.64
2022-08-20T14:18:32.943Z,45.04
2022-08-20T14:23:36.859Z,44.07
2022-08-20T14:28:38.847Z,44.97
2022-08-20T14:33:44.579Z,45.10
2022-08-20T14:38:46.583Z,45.40
2022-08-20T14:43:48.295Z,46.17
2022-08-20T14:48:52.526Z,45.34
2022-08-20T14:53:55.180Z,44.69
2022-08-20T14:58:56.995Z,46.09
2022-08-20T15:03:58.761Z,46.21
2022-08-20T15:09:00.589Z,45.69
2022-08-20T15:14:02.276Z,46.40
2022-08-20T15:19:04.260Z,46.49
2022-08-20T15:24:15.760Z,46.38
2022-08-20T15:29:40.059Z,46.93
2022-08-20T15:34:42.368Z,46.37
2022-08-20T15:39:45.304Z,45.76
2022-08-20T15:44:47.833Z,46.51
2022-08-20T15:49:52.854Z,46.19
2022-08-20T15:54:55.054Z,47.37
2022-08-20T16:00:07.124Z,46.90
2022-08-20T16:05:14.734Z,45.39
2022-08-20T16:10:26.791Z,44.93
2022-08-20T16:15:31.773Z,44.41
2022-08-20T16:20:39.724Z,45.00
2022-08-20T16:26:17.366Z,44.35
2022-08-20T16:31:23.678Z,46.74
2022-08-20T16:36:42.119Z,45.09
2022-08-20T16:41:46.046Z,45.62
2022-08-20T16:46:57.941Z,47.08
2022-08-20T16:52:00.496Z,47.50
2022-08-20T16:57:06.078Z,49.26
2022-08-20T17:02:10.916Z,49.19
2022-08-20T17:07:12.716Z,51.04
2022-08-20T17:12:27.806Z,50.90
2022-08-20T17:17:32.856Z,51.10
2022-08-20T17:22:42.214Z,51.67
2022-08-20T17:27:44.818Z,52.46
2022-08-20T17:32:59.262Z,51.52
2022-08-20T17:38:02.776Z,51.29
2022-08-20T17:43:09.516Z,52.24
2022-08-20T17:48:21.809Z,53.29
2022-08-20T17:53:27.444Z,53.24
2022-08-20T17:58:41.759Z,53.14
2022-08-20T18:03:57.706Z,53.99
2022-08-20T18:09:20.467Z,54.02
2022-08-20T18:14:33.871Z,54.59
2022-08-20T18:19:50.853Z,55.27
2022-08-20T18:25:01.419Z,55.15
2022-08-20T18:30:13.092Z,56.14
2022-08-20T18:35:39.663Z,56.45
2022-08-20T18:40:50.868Z,57.83
2022-08-20T18:46:18.767Z,59.00
2022-08-20T18:51:26.054Z,58.99
2022-08-20T18:56:39.397Z,58.78
2022-08-20T19:01:42.651Z,59.44
2022-08-20T19:07:01.842Z,59.32
2022-08-20T19:12:23.192Z,59.93
2022-08-20T19:17:52.830Z,59.68
2022-08-20T19:23:00.060Z,59.65
2022-08-20T19:28:21.858Z,59.39
2022-08-20T19:33:31.429Z,59.82
2022-08-20T19:38:52.530Z,60.49
2022-08-20T19:43:55.157Z,60.38
2022-08-20T19:49:24.708Z,60.62
2022-08-20T19:54:28.574Z,60.97
2022-08-20T19:59:30.383Z,61.41
2022-08-20T20:04:54.877Z,61.80
2022-08-20T20:10:00.889Z,61.35
2022-08-20T20:15:05.808Z,61.22
2022-08-20T20:20:57.097Z,61.72
2022-08-20T20:26:03.265Z,62.93
2022-08-20T20:31:07.289Z,63.76
2022-08-20T20:36:12.429Z,63.33
2022-08-20T20:41:26.966Z,63.46
2022-08-20T20:46:30.905Z,64.16
2022-08-20T20:51:36.565Z,64.03
2022-08-20T20:56:43.129Z,64.65
2022-08-20T21:01:53.155Z,64.91
2022-08-20T21:07:00.152Z,65.39
2022-08-20T21:12:03.354Z,65.11
2022-08-20T21:17:08.666Z,65.59
2022-08-20T21:22:10.704Z,66.10
2022-08-20T21:27:12.947Z,66.32
2022-08-20T21:32:18.370Z,65.95
2022-08-20T21:37:20.131Z,66.46
2022-08-20T21:42:29.183Z,66.90
2022-08-20T21:47:31.522Z,66.82
2022-08-20T21:52:33.492Z,66.63
2022-08-20T21:57:37.614Z,66.29
2022-08-20T22:02:40.848Z,66.17
2022-08-20T22:07:43.404Z,66.76
2022-08-20T22:12:45.581Z,66.40
2022-08-20T22:17:47.248Z,67.17
2022-08-20T22:22:49.120Z,67.33
2022-08-20T22:27:50.899Z,67.93
2022-08-20T22:32:58.860Z,68.69
2022-08-20T22:38:01.296Z,68.95
2022-08-20T22:43:03.059Z,68.99
2022-08-20T22:48:08.479Z,68.88
2022-08-20T22:53:11.685Z,69.13
2022-08-20T22:58:13.374Z,69.23
2022-08-20T23:03:19.821Z,69.13
2022-08-20T23:08:41.805Z,69.50
2022-08-20T23:13:43.532Z,70.58
2022-08-20T23:18:45.230Z,71.13
2022-08-20T23:23:47.050Z,71.36
2022-08-20T23:28:49.104Z,71.09
2022-08-20T23:33:50.747Z,71.74
2022-08-20T23:38:52.918Z,72.56
2022-08-20T23:43:54.503Z,72.69
2022-08-20T23:48:56.103Z,72.80
2022-08-20T23:53:57.800Z,73.58
2022-08-20T23:58:59.499Z,74.30
